sensor_id;sensor_type;location;lat;lon;timestamp;P1;durP1;ratioP1;P2;durP2;ratioP2
5452;SDS011;2749;53.576;9.822;2022-12-24T00:00:30;29.77;;;17.37;;
5452;SDS011;2749;53.576;9.822;2022-12-24T00:02:56;30.50;;;15.43;;
5452;SDS011;2749;53.576;9.822;2022-12-24T00:05:22;30.13;;;15.83;;
5452;SDS011;2749;53.576;9.822;2022-12-24T00:07:48;30.30;;;15.80;;
5452;SDS011;2749;53.576;9.822;2022-12-24T00:10:14;33.03;;;15.43;;
5452;SDS011;2749;53.576;9.822;2022-12-24T00:12:40;28.40;;;15.50;;
5452;SDS011;2749;53.576;9.822;2022-12-24T00:15:06;21.57;;;15.03;;
5452;SDS011;2749;53.576;9.822;2022-12-24T00:17:32;28.63;;;15.97;;
5452;SDS011;2749;53.576;9.822;2022-12-24T00:19:58;32.20;;;15.57;;
5452;SDS011;2749;53.576;9.822;2022-12-24T00:22:24;26.07;;;13.73;;
5452;SDS011;2749;53.576;9.822;2022-12-24T00:24:50;32.30;;;17.33;;
5452;SDS011;2749;53.576;9.822;2022-12-24T00:27:16;29.07;;;13.60;;
5452;SDS011;2749;53.576;9.822;2022-12-24T00:29:42;30.40;;;14.57;;
5452;SDS011;2749;53.576;9.822;2022-12-24T00:32:08;31.03;;;16.90;;
5452;SDS011;2749;53.576;9.822;2022-12-24T00:34:37;27.67;;;15.80;;
5452;SDS011;2749;53.576;9.822;2022-12-24T00:37:03;31.03;;;16.73;;
5452;SDS011;2749;53.576;9.822;2022-12-24T00:39:29;33.60;;;15.50;;
5452;SDS011;2749;53.576;9.822;2022-12-24T00:41:55;31.10;;;15.40;;
5452;SDS011;2749;53.576;9.822;2022-12-24T00:44:21;30.00;;;14.93;;
5452;SDS011;2749;53.576;9.822;2022-12-24T00:46:47;27.77;;;15.37;;
5452;SDS011;2749;53.576;9.822;2022-12-24T00:49:13;30.40;;;14.13;;
5452;SDS011;2749;53.576;9.822;2022-12-24T00:51:39;28.50;;;16.20;;
5452;SDS011;2749;53.576;9.822;2022-12-24T00:54:05;26.33;;;15.13;;
5452;SDS011;2749;53.576;9.822;2022-12-24T00:56:32;27.10;;;15.40;;
5452;SDS011;2749;53.576;9.822;2022-12-24T00:58:58;30.87;;;17.47;;
5452;SDS011;2749;53.576;9.822;2022-12-24T01:01:24;31.10;;;15.80;;
5452;SDS011;2749;53.576;9.822;2022-12-24T01:03:50;39.20;;;15.90;;
5452;SDS011;2749;53.576;9.822;2022-12-24T01:06:17;38.50;;;15.60;;
5452;SDS011;2749;53.576;9.822;2022-12-24T01:08:43;31.37;;;15.23;;
5452;SDS011;2749;53.576;9.822;2022-12-24T01:11:10;29.60;;;15.40;;
5452;SDS011;2749;53.576;9.822;2022-12-24T01:13:36;36.27;;;15.50;;
5452;SDS011;2749;53.576;9.822;2022-12-24T01:16:02;28.17;;;15.90;;
5452;SDS011;2749;53.576;9.822;2022-12-24T01:18:28;27.93;;;15.50;;
5452;SDS011;2749;53.576;9.822;2022-12-24T01:20:58;39.50;;;15.67;;
5452;SDS011;2749;53.576;9.822;2022-12-24T01:23:25;28.20;;;15.97;;
5452;SDS011;2749;53.576;9.822;2022-12-24T01:25:51;34.77;;;15.93;;
5452;SDS011;2749;53.576;9.822;2022-12-24T01:28:18;29.07;;;14.30;;
5452;SDS011;2749;53.576;9.822;2022-12-24T01:30:44;37.70;;;16.33;;
5452;SDS011;2749;53.576;9.822;2022-12-24T01:33:10;26.67;;;15.10;;
5452;SDS011;2749;53.576;9.822;2022-12-24T01:35:39;37.63;;;17.67;;
5452;SDS011;2749;53.576;9.822;2022-12-24T01:38:05;26.07;;;15.07;;
5452;SDS011;2749;53.576;9.822;2022-12-24T01:40:31;34.70;;;18.00;;
5452;SDS011;2749;53.576;9.822;2022-12-24T01:43:17;27.40;;;13.80;;
5452;SDS011;2749;53.576;9.822;2022-12-24T01:46:02;26.23;;;13.53;;
5452;SDS011;2749;53.576;9.822;2022-12-24T01:48:39;29.87;;;15.93;;
5452;SDS011;2749;53.576;9.822;2022-12-24T01:51:10;32.97;;;16.17;;
5452;SDS011;2749;53.576;9.822;2022-12-24T01:53:39;32.50;;;13.63;;
5452;SDS011;2749;53.576;9.822;2022-12-24T01:56:06;29.63;;;13.50;;
5452;SDS011;2749;53.576;9.822;2022-12-24T01:58:34;33.50;;;15.97;;
5452;SDS011;2749;53.576;9.822;2022-12-24T02:01:00;31.73;;;14.27;;
5452;SDS011;2749;53.576;9.822;2022-12-24T02:03:26;36.20;;;16.07;;
5452;SDS011;2749;53.576;9.822;2022-12-24T02:05:53;31.03;;;15.40;;
5452;SDS011;2749;53.576;9.822;2022-12-24T02:08:21;22.63;;;13.70;;
5452;SDS011;2749;53.576;9.822;2022-12-24T02:10:49;30.20;;;15.83;;
5452;SDS011;2749;53.576;9.822;2022-12-24T02:13:16;25.23;;;14.47;;
5452;SDS011;2749;53.576;9.822;2022-12-24T02:18:34;27.97;;;14.60;;
5452;SDS011;2749;53.576;9.822;2022-12-24T02:26:26;22.60;;;13.37;;
5452;SDS011;2749;53.576;9.822;2022-12-24T02:31:38;27.47;;;15.57;;
5452;SDS011;2749;53.576;9.822;2022-12-24T02:34:12;27.50;;;14.17;;
5452;SDS011;2749;53.576;9.822;2022-12-24T02:36:41;34.37;;;16.47;;
5452;SDS011;2749;53.576;9.822;2022-12-24T02:39:17;31.63;;;15.50;;
5452;SDS011;2749;53.576;9.822;2022-12-24T02:41:47;26.53;;;14.47;;
5452;SDS011;2749;53.576;9.822;2022-12-24T02:44:30;30.13;;;15.53;;
5452;SDS011;2749;53.576;9.822;2022-12-24T02:46:57;28.23;;;13.87;;
5452;SDS011;2749;53.576;9.822;2022-12-24T02:49:24;25.60;;;12.97;;
5452;SDS011;2749;53.576;9.822;2022-12-24T02:51:49;30.60;;;13.13;;
5452;SDS011;2749;53.576;9.822;2022-12-24T02:54:15;24.50;;;12.33;;
5452;SDS011;2749;53.576;9.822;2022-12-24T02:57:01;25.60;;;14.10;;
5452;SDS011;2749;53.576;9.822;2022-12-24T02:59:50;23.53;;;12.80;;
5452;SDS011;2749;53.576;9.822;2022-12-24T03:07:23;21.33;;;12.70;;
5452;SDS011;2749;53.576;9.822;2022-12-24T03:10:02;24.03;;;11.53;;
5452;SDS011;2749;53.576;9.822;2022-12-24T03:12:33;26.07;;;12.60;;
5452;SDS011;2749;53.576;9.822;2022-12-24T03:15:00;22.03;;;13.33;;
5452;SDS011;2749;53.576;9.822;2022-12-24T03:17:27;18.97;;;12.03;;
5452;SDS011;2749;53.576;9.822;2022-12-24T03:19:54;25.53;;;13.47;;
5452;SDS011;2749;53.576;9.822;2022-12-24T03:22:20;24.20;;;13.13;;
5452;SDS011;2749;53.576;9.822;2022-12-24T03:24:47;25.97;;;12.70;;
5452;SDS011;2749;53.576;9.822;2022-12-24T03:27:13;24.63;;;12.47;;
5452;SDS011;2749;53.576;9.822;2022-12-24T03:29:40;27.13;;;12.93;;
5452;SDS011;2749;53.576;9.822;2022-12-24T03:32:06;20.93;;;12.90;;
5452;SDS011;2749;53.576;9.822;2022-12-24T03:34:32;20.47;;;13.47;;
5452;SDS011;2749;53.576;9.822;2022-12-24T03:36:58;25.17;;;13.27;;
5452;SDS011;2749;53.576;9.822;2022-12-24T03:39:24;22.87;;;12.03;;
5452;SDS011;2749;53.576;9.822;2022-12-24T03:41:50;24.60;;;11.70;;
5452;SDS011;2749;53.576;9.822;2022-12-24T03:44:16;15.97;;;12.17;;
5452;SDS011;2749;53.576;9.822;2022-12-24T03:46:42;24.07;;;12.73;;
5452;SDS011;2749;53.576;9.822;2022-12-24T03:49:08;21.73;;;12.57;;
5452;SDS011;2749;53.576;9.822;2022-12-24T03:51:34;23.13;;;12.73;;
5452;SDS011;2749;53.576;9.822;2022-12-24T03:53:59;22.23;;;12.40;;
5452;SDS011;2749;53.576;9.822;2022-12-24T03:56:25;26.00;;;13.00;;
5452;SDS011;2749;53.576;9.822;2022-12-24T03:58:51;22.63;;;12.50;;
5452;SDS011;2749;53.576;9.822;2022-12-24T04:01:17;22.80;;;12.77;;
5452;SDS011;2749;53.576;9.822;2022-12-24T04:03:43;22.53;;;12.33;;
5452;SDS011;2749;53.576;9.822;2022-12-24T04:06:13;18.47;;;11.20;;
5452;SDS011;2749;53.576;9.822;2022-12-24T04:08:40;20.80;;;11.97;;
5452;SDS011;2749;53.576;9.822;2022-12-24T04:11:07;20.30;;;12.20;;
5452;SDS011;2749;53.576;9.822;2022-12-24T04:13:33;18.13;;;10.50;;
5452;SDS011;2749;53.576;9.822;2022-12-24T04:16:00;19.07;;;11.17;;
5452;SDS011;2749;53.576;9.822;2022-12-24T04:18:26;23.03;;;11.17;;
5452;SDS011;2749;53.576;9.822;2022-12-24T04:20:53;21.07;;;13.40;;
5452;SDS011;2749;53.576;9.822;2022-12-24T04:23:19;21.30;;;12.47;;
5452;SDS011;2749;53.576;9.822;2022-12-24T04:25:45;20.30;;;11.10;;
5452;SDS011;2749;53.576;9.822;2022-12-24T04:28:11;17.27;;;11.50;;
5452;SDS011;2749;53.576;9.822;2022-12-24T04:30:37;17.07;;;9.70;;
5452;SDS011;2749;53.576;9.822;2022-12-24T04:33:03;22.23;;;11.17;;
5452;SDS011;2749;53.576;9.822;2022-12-24T04:35:29;22.93;;;11.40;;
5452;SDS011;2749;53.576;9.822;2022-12-24T04:37:56;21.87;;;12.73;;
5452;SDS011;2749;53.576;9.822;2022-12-24T04:40:22;20.23;;;12.73;;
5452;SDS011;2749;53.576;9.822;2022-12-24T04:42:48;21.77;;;12.00;;
5452;SDS011;2749;53.576;9.822;2022-12-24T04:45:14;18.10;;;10.70;;
5452;SDS011;2749;53.576;9.822;2022-12-24T04:47:41;19.50;;;10.77;;
5452;SDS011;2749;53.576;9.822;2022-12-24T04:50:07;16.77;;;10.90;;
5452;SDS011;2749;53.576;9.822;2022-12-24T04:52:33;20.30;;;9.13;;
5452;SDS011;2749;53.576;9.822;2022-12-24T04:54:59;15.03;;;8.70;;
5452;SDS011;2749;53.576;9.822;2022-12-24T04:57:25;17.03;;;11.57;;
5452;SDS011;2749;53.576;9.822;2022-12-24T04:59:51;14.87;;;9.77;;
5452;SDS011;2749;53.576;9.822;2022-12-24T05:02:17;15.50;;;10.30;;
5452;SDS011;2749;53.576;9.822;2022-12-24T05:04:43;19.47;;;11.40;;
5452;SDS011;2749;53.576;9.822;2022-12-24T05:07:09;14.50;;;8.83;;
5452;SDS011;2749;53.576;9.822;2022-12-24T05:09:34;15.30;;;9.73;;
5452;SDS011;2749;53.576;9.822;2022-12-24T05:12:00;19.20;;;11.40;;
5452;SDS011;2749;53.576;9.822;2022-12-24T05:14:26;16.63;;;9.70;;
5452;SDS011;2749;53.576;9.822;2022-12-24T05:16:52;14.33;;;8.80;;
5452;SDS011;2749;53.576;9.822;2022-12-24T05:19:18;17.53;;;8.90;;
5452;SDS011;2749;53.576;9.822;2022-12-24T05:21:44;16.37;;;9.20;;
5452;SDS011;2749;53.576;9.822;2022-12-24T05:24:30;15.00;;;9.30;;
5452;SDS011;2749;53.576;9.822;2022-12-24T05:27:14;17.97;;;9.47;;
5452;SDS011;2749;53.576;9.822;2022-12-24T05:29:40;16.80;;;9.10;;
5452;SDS011;2749;53.576;9.822;2022-12-24T05:32:06;14.57;;;8.77;;
5452;SDS011;2749;53.576;9.822;2022-12-24T05:34:32;19.10;;;10.50;;
5452;SDS011;2749;53.576;9.822;2022-12-24T05:36:58;15.00;;;9.63;;
5452;SDS011;2749;53.576;9.822;2022-12-24T05:39:24;11.20;;;8.37;;
5452;SDS011;2749;53.576;9.822;2022-12-24T05:41:50;12.53;;;8.33;;
5452;SDS011;2749;53.576;9.822;2022-12-24T05:44:16;13.97;;;10.10;;
5452;SDS011;2749;53.576;9.822;2022-12-24T05:46:42;17.33;;;10.20;;
5452;SDS011;2749;53.576;9.822;2022-12-24T05:49:08;14.07;;;9.33;;
5452;SDS011;2749;53.576;9.822;2022-12-24T05:51:34;15.10;;;8.40;;
5452;SDS011;2749;53.576;9.822;2022-12-24T05:54:00;16.27;;;8.83;;
5452;SDS011;2749;53.576;9.822;2022-12-24T05:56:25;15.17;;;9.20;;
5452;SDS011;2749;53.576;9.822;2022-12-24T05:58:51;13.20;;;7.67;;
5452;SDS011;2749;53.576;9.822;2022-12-24T06:01:18;14.07;;;9.80;;
5452;SDS011;2749;53.576;9.822;2022-12-24T06:03:44;22.10;;;9.50;;
5452;SDS011;2749;53.576;9.822;2022-12-24T06:06:15;8.90;;;7.00;;
5452;SDS011;2749;53.576;9.822;2022-12-24T06:08:45;13.70;;;8.20;;
5452;SDS011;2749;53.576;9.822;2022-12-24T06:11:11;14.93;;;9.67;;
5452;SDS011;2749;53.576;9.822;2022-12-24T06:13:38;14.67;;;9.50;;
5452;SDS011;2749;53.576;9.822;2022-12-24T06:16:05;17.37;;;10.83;;
5452;SDS011;2749;53.576;9.822;2022-12-24T06:18:32;13.77;;;8.47;;
5452;SDS011;2749;53.576;9.822;2022-12-24T06:20:59;16.50;;;9.67;;
5452;SDS011;2749;53.576;9.822;2022-12-24T06:23:25;17.90;;;9.87;;
5452;SDS011;2749;53.576;9.822;2022-12-24T06:25:51;20.07;;;10.77;;
5452;SDS011;2749;53.576;9.822;2022-12-24T06:28:17;13.67;;;9.63;;
5452;SDS011;2749;53.576;9.822;2022-12-24T06:30:46;12.50;;;8.67;;
5452;SDS011;2749;53.576;9.822;2022-12-24T06:33:13;18.53;;;9.17;;
5452;SDS011;2749;53.576;9.822;2022-12-24T06:35:39;12.20;;;9.20;;
5452;SDS011;2749;53.576;9.822;2022-12-24T06:38:05;15.67;;;9.50;;
5452;SDS011;2749;53.576;9.822;2022-12-24T06:40:31;15.50;;;8.40;;
5452;SDS011;2749;53.576;9.822;2022-12-24T06:42:57;14.30;;;9.33;;
5452;SDS011;2749;53.576;9.822;2022-12-24T06:45:23;14.83;;;8.70;;
5452;SDS011;2749;53.576;9.822;2022-12-24T06:47:49;13.47;;;9.17;;
5452;SDS011;2749;53.576;9.822;2022-12-24T06:50:15;12.10;;;8.07;;
5452;SDS011;2749;53.576;9.822;2022-12-24T06:52:41;10.77;;;7.80;;
5452;SDS011;2749;53.576;9.822;2022-12-24T06:55:07;10.63;;;7.90;;
5452;SDS011;2749;53.576;9.822;2022-12-24T06:57:33;12.73;;;8.77;;
5452;SDS011;2749;53.576;9.822;2022-12-24T06:59:59;12.80;;;8.90;;
5452;SDS011;2749;53.576;9.822;2022-12-24T07:02:25;11.27;;;8.63;;
5452;SDS011;2749;53.576;9.822;2022-12-24T07:04:51;14.37;;;8.50;;
5452;SDS011;2749;53.576;9.822;2022-12-24T07:07:17;14.63;;;8.03;;
5452;SDS011;2749;53.576;9.822;2022-12-24T07:09:43;12.87;;;8.40;;
5452;SDS011;2749;53.576;9.822;2022-12-24T07:12:08;13.03;;;7.40;;
5452;SDS011;2749;53.576;9.822;2022-12-24T07:14:34;12.33;;;8.20;;
5452;SDS011;2749;53.576;9.822;2022-12-24T07:17:00;16.70;;;9.67;;
5452;SDS011;2749;53.576;9.822;2022-12-24T07:19:26;12.50;;;8.50;;
5452;SDS011;2749;53.576;9.822;2022-12-24T07:21:52;13.67;;;7.40;;
5452;SDS011;2749;53.576;9.822;2022-12-24T07:24:18;13.63;;;9.37;;
5452;SDS011;2749;53.576;9.822;2022-12-24T07:26:45;20.00;;;9.33;;
5452;SDS011;2749;53.576;9.822;2022-12-24T07:29:11;11.60;;;8.30;;
5452;SDS011;2749;53.576;9.822;2022-12-24T07:31:37;13.00;;;8.40;;
5452;SDS011;2749;53.576;9.822;2022-12-24T07:34:03;16.20;;;8.70;;
5452;SDS011;2749;53.576;9.822;2022-12-24T07:36:29;22.87;;;14.03;;
5452;SDS011;2749;53.576;9.822;2022-12-24T07:38:54;15.10;;;9.30;;
5452;SDS011;2749;53.576;9.822;2022-12-24T07:41:21;14.50;;;8.70;;
5452;SDS011;2749;53.576;9.822;2022-12-24T07:43:47;13.33;;;9.20;;
5452;SDS011;2749;53.576;9.822;2022-12-24T07:46:13;12.57;;;8.50;;
5452;SDS011;2749;53.576;9.822;2022-12-24T07:48:39;14.80;;;8.10;;
5452;SDS011;2749;53.576;9.822;2022-12-24T07:51:04;11.00;;;8.43;;
5452;SDS011;2749;53.576;9.822;2022-12-24T07:53:30;12.73;;;9.40;;
5452;SDS011;2749;53.576;9.822;2022-12-24T07:55:57;12.17;;;7.47;;
5452;SDS011;2749;53.576;9.822;2022-12-24T07:58:23;10.90;;;7.20;;
5452;SDS011;2749;53.576;9.822;2022-12-24T08:00:53;12.17;;;7.73;;
5452;SDS011;2749;53.576;9.822;2022-12-24T08:03:20;16.00;;;7.40;;
5452;SDS011;2749;53.576;9.822;2022-12-24T08:05:46;10.67;;;7.40;;
5452;SDS011;2749;53.576;9.822;2022-12-24T08:08:13;9.60;;;7.13;;
5452;SDS011;2749;53.576;9.822;2022-12-24T08:10:39;6.43;;;5.83;;
5452;SDS011;2749;53.576;9.822;2022-12-24T08:13:05;14.50;;;7.50;;
5452;SDS011;2749;53.576;9.822;2022-12-24T08:15:31;9.40;;;6.37;;
5452;SDS011;2749;53.576;9.822;2022-12-24T08:17:57;10.20;;;6.43;;
5452;SDS011;2749;53.576;9.822;2022-12-24T08:20:23;8.17;;;5.93;;
5452;SDS011;2749;53.576;9.822;2022-12-24T08:22:49;8.27;;;5.27;;
5452;SDS011;2749;53.576;9.822;2022-12-24T08:25:15;9.80;;;6.20;;
5452;SDS011;2749;53.576;9.822;2022-12-24T08:27:41;9.07;;;6.13;;
5452;SDS011;2749;53.576;9.822;2022-12-24T08:30:07;8.13;;;6.77;;
5452;SDS011;2749;53.576;9.822;2022-12-24T08:32:36;10.63;;;6.43;;
5452;SDS011;2749;53.576;9.822;2022-12-24T08:35:02;9.90;;;7.10;;
5452;SDS011;2749;53.576;9.822;2022-12-24T08:37:28;13.40;;;7.50;;
5452;SDS011;2749;53.576;9.822;2022-12-24T08:39:53;10.83;;;5.20;;
5452;SDS011;2749;53.576;9.822;2022-12-24T08:42:19;7.67;;;5.03;;
5452;SDS011;2749;53.576;9.822;2022-12-24T08:44:45;9.60;;;6.33;;
5452;SDS011;2749;53.576;9.822;2022-12-24T08:47:11;6.57;;;5.00;;
5452;SDS011;2749;53.576;9.822;2022-12-24T08:49:37;9.83;;;6.47;;
5452;SDS011;2749;53.576;9.822;2022-12-24T08:52:04;8.80;;;5.87;;
5452;SDS011;2749;53.576;9.822;2022-12-24T08:54:30;8.97;;;6.83;;
5452;SDS011;2749;53.576;9.822;2022-12-24T08:56:56;7.80;;;6.97;;
5452;SDS011;2749;53.576;9.822;2022-12-24T08:59:22;8.20;;;5.80;;
5452;SDS011;2749;53.576;9.822;2022-12-24T09:01:48;12.00;;;6.23;;
5452;SDS011;2749;53.576;9.822;2022-12-24T09:04:13;14.73;;;6.30;;
5452;SDS011;2749;53.576;9.822;2022-12-24T09:06:39;8.43;;;6.33;;
5452;SDS011;2749;53.576;9.822;2022-12-24T09:09:05;11.23;;;6.53;;
5452;SDS011;2749;53.576;9.822;2022-12-24T09:11:32;8.50;;;6.00;;
5452;SDS011;2749;53.576;9.822;2022-12-24T09:13:58;9.73;;;6.60;;
5452;SDS011;2749;53.576;9.822;2022-12-24T09:16:24;11.43;;;6.80;;
5452;SDS011;2749;53.576;9.822;2022-12-24T09:18:50;10.07;;;7.47;;
5452;SDS011;2749;53.576;9.822;2022-12-24T09:21:16;12.13;;;7.10;;
5452;SDS011;2749;53.576;9.822;2022-12-24T09:23:43;13.83;;;7.40;;
5452;SDS011;2749;53.576;9.822;2022-12-24T09:26:13;15.90;;;9.00;;
5452;SDS011;2749;53.576;9.822;2022-12-24T09:28:39;11.40;;;7.70;;
5452;SDS011;2749;53.576;9.822;2022-12-24T09:31:06;9.10;;;7.03;;
5452;SDS011;2749;53.576;9.822;2022-12-24T09:33:34;15.07;;;7.70;;
5452;SDS011;2749;53.576;9.822;2022-12-24T09:36:01;10.20;;;7.30;;
5452;SDS011;2749;53.576;9.822;2022-12-24T09:38:27;12.10;;;7.67;;
5452;SDS011;2749;53.576;9.822;2022-12-24T09:40:54;9.60;;;6.40;;
5452;SDS011;2749;53.576;9.822;2022-12-24T09:43:21;9.27;;;7.53;;
5452;SDS011;2749;53.576;9.822;2022-12-24T09:48:14;9.87;;;7.73;;
5452;SDS011;2749;53.576;9.822;2022-12-24T09:50:56;12.90;;;8.40;;
5452;SDS011;2749;53.576;9.822;2022-12-24T09:53:26;9.47;;;6.90;;
5452;SDS011;2749;53.576;9.822;2022-12-24T09:55:54;11.07;;;8.80;;
5452;SDS011;2749;53.576;9.822;2022-12-24T09:58:22;12.03;;;8.30;;
5452;SDS011;2749;53.576;9.822;2022-12-24T10:00:50;12.00;;;7.90;;
5452;SDS011;2749;53.576;9.822;2022-12-24T10:03:16;11.97;;;8.73;;
5452;SDS011;2749;53.576;9.822;2022-12-24T10:05:47;11.13;;;8.20;;
5452;SDS011;2749;53.576;9.822;2022-12-24T10:08:18;9.67;;;6.57;;
5452;SDS011;2749;53.576;9.822;2022-12-24T10:10:49;10.13;;;7.50;;
5452;SDS011;2749;53.576;9.822;2022-12-24T10:16:02;9.23;;;7.33;;
5452;SDS011;2749;53.576;9.822;2022-12-24T10:18:51;13.90;;;7.77;;
5452;SDS011;2749;53.576;9.822;2022-12-24T10:21:42;10.27;;;7.97;;
5452;SDS011;2749;53.576;9.822;2022-12-24T10:24:15;8.30;;;6.80;;
5452;SDS011;2749;53.576;9.822;2022-12-24T10:29:17;8.77;;;7.67;;
5452;SDS011;2749;53.576;9.822;2022-12-24T10:31:48;11.83;;;9.17;;
5452;SDS011;2749;53.576;9.822;2022-12-24T10:34:21;8.83;;;6.97;;
5452;SDS011;2749;53.576;9.822;2022-12-24T10:36:47;11.07;;;7.77;;
5452;SDS011;2749;53.576;9.822;2022-12-24T10:39:17;10.47;;;7.83;;
5452;SDS011;2749;53.576;9.822;2022-12-24T10:41:45;10.30;;;7.90;;
5452;SDS011;2749;53.576;9.822;2022-12-24T10:44:14;12.73;;;9.53;;
5452;SDS011;2749;53.576;9.822;2022-12-24T10:46:41;11.47;;;7.67;;
5452;SDS011;2749;53.576;9.822;2022-12-24T10:49:10;11.67;;;7.80;;
5452;SDS011;2749;53.576;9.822;2022-12-24T10:51:49;19.90;;;9.73;;
5452;SDS011;2749;53.576;9.822;2022-12-24T10:54:19;10.50;;;7.50;;
5452;SDS011;2749;53.576;9.822;2022-12-24T10:56:46;15.30;;;8.70;;
5452;SDS011;2749;53.576;9.822;2022-12-24T11:02:24;13.80;;;7.63;;
5452;SDS011;2749;53.576;9.822;2022-12-24T11:04:50;10.23;;;8.07;;
5452;SDS011;2749;53.576;9.822;2022-12-24T11:07:18;12.30;;;7.80;;
5452;SDS011;2749;53.576;9.822;2022-12-24T11:09:53;9.10;;;8.17;;
5452;SDS011;2749;53.576;9.822;2022-12-24T11:12:21;12.93;;;11.37;;
5452;SDS011;2749;53.576;9.822;2022-12-24T11:14:47;13.10;;;9.63;;
5452;SDS011;2749;53.576;9.822;2022-12-24T11:17:18;15.03;;;8.20;;
5452;SDS011;2749;53.576;9.822;2022-12-24T11:19:46;10.63;;;7.77;;
5452;SDS011;2749;53.576;9.822;2022-12-24T11:22:23;12.93;;;8.53;;
5452;SDS011;2749;53.576;9.822;2022-12-24T11:25:00;12.40;;;8.30;;
5452;SDS011;2749;53.576;9.822;2022-12-24T11:27:28;10.60;;;8.10;;
5452;SDS011;2749;53.576;9.822;2022-12-24T11:30:16;18.17;;;9.03;;
5452;SDS011;2749;53.576;9.822;2022-12-24T11:32:44;10.93;;;8.70;;
5452;SDS011;2749;53.576;9.822;2022-12-24T11:35:14;13.97;;;8.50;;
5452;SDS011;2749;53.576;9.822;2022-12-24T11:37:41;13.50;;;10.03;;
5452;SDS011;2749;53.576;9.822;2022-12-24T11:40:16;12.80;;;9.50;;
5452;SDS011;2749;53.576;9.822;2022-12-24T11:42:44;9.37;;;8.27;;
5452;SDS011;2749;53.576;9.822;2022-12-24T11:45:21;13.00;;;9.90;;
5452;SDS011;2749;53.576;9.822;2022-12-24T11:47:47;11.37;;;9.83;;
5452;SDS011;2749;53.576;9.822;2022-12-24T11:50:21;12.37;;;10.00;;
5452;SDS011;2749;53.576;9.822;2022-12-24T11:52:48;13.70;;;9.40;;
5452;SDS011;2749;53.576;9.822;2022-12-24T11:58:10;13.77;;;8.77;;
5452;SDS011;2749;53.576;9.822;2022-12-24T12:00:38;15.53;;;10.10;;
5452;SDS011;2749;53.576;9.822;2022-12-24T12:03:05;11.40;;;9.00;;
5452;SDS011;2749;53.576;9.822;2022-12-24T12:05:39;12.17;;;9.40;;
5452;SDS011;2749;53.576;9.822;2022-12-24T12:08:08;11.37;;;8.70;;
5452;SDS011;2749;53.576;9.822;2022-12-24T12:10:36;16.30;;;10.37;;
5452;SDS011;2749;53.576;9.822;2022-12-24T12:13:04;13.30;;;9.27;;
5452;SDS011;2749;53.576;9.822;2022-12-24T12:15:34;15.27;;;10.90;;
5452;SDS011;2749;53.576;9.822;2022-12-24T12:18:10;17.07;;;10.87;;
5452;SDS011;2749;53.576;9.822;2022-12-24T12:20:38;12.07;;;8.60;;
5452;SDS011;2749;53.576;9.822;2022-12-24T12:23:11;17.57;;;11.87;;
5452;SDS011;2749;53.576;9.822;2022-12-24T12:26:13;14.40;;;10.00;;
5452;SDS011;2749;53.576;9.822;2022-12-24T12:28:34;14.97;;;11.20;;
5452;SDS011;2749;53.576;9.822;2022-12-24T12:31:12;15.17;;;9.53;;
5452;SDS011;2749;53.576;9.822;2022-12-24T12:33:40;15.87;;;12.30;;
5452;SDS011;2749;53.576;9.822;2022-12-24T12:36:08;15.53;;;10.93;;
5452;SDS011;2749;53.576;9.822;2022-12-24T12:38:35;19.73;;;12.00;;
5452;SDS011;2749;53.576;9.822;2022-12-24T12:43:58;18.93;;;10.80;;
5452;SDS011;2749;53.576;9.822;2022-12-24T12:46:28;14.70;;;10.17;;
5452;SDS011;2749;53.576;9.822;2022-12-24T12:54:34;18.73;;;10.17;;
5452;SDS011;2749;53.576;9.822;2022-12-24T12:57:06;19.00;;;10.23;;
5452;SDS011;2749;53.576;9.822;2022-12-24T12:59:37;16.93;;;10.70;;
5452;SDS011;2749;53.576;9.822;2022-12-24T13:02:13;21.33;;;9.63;;
5452;SDS011;2749;53.576;9.822;2022-12-24T13:12:42;15.63;;;9.33;;
5452;SDS011;2749;53.576;9.822;2022-12-24T13:15:24;15.73;;;8.33;;
5452;SDS011;2749;53.576;9.822;2022-12-24T13:18:00;19.07;;;11.00;;
5452;SDS011;2749;53.576;9.822;2022-12-24T13:20:29;26.67;;;10.47;;
5452;SDS011;2749;53.576;9.822;2022-12-24T13:22:57;24.43;;;8.80;;
5452;SDS011;2749;53.576;9.822;2022-12-24T13:25:37;22.13;;;9.60;;
5452;SDS011;2749;53.576;9.822;2022-12-24T13:30:46;19.07;;;8.60;;
5452;SDS011;2749;53.576;9.822;2022-12-24T13:33:13;19.73;;;8.53;;
5452;SDS011;2749;53.576;9.822;2022-12-24T13:35:59;30.30;;;10.47;;
5452;SDS011;2749;53.576;9.822;2022-12-24T13:40:52;21.23;;;7.93;;
5452;SDS011;2749;53.576;9.822;2022-12-24T13:43:17;23.13;;;10.70;;
5452;SDS011;2749;53.576;9.822;2022-12-24T13:45:44;22.43;;;8.20;;
5452;SDS011;2749;53.576;9.822;2022-12-24T13:48:13;20.27;;;8.60;;
5452;SDS011;2749;53.576;9.822;2022-12-24T13:50:44;16.03;;;6.80;;
5452;SDS011;2749;53.576;9.822;2022-12-24T13:55:50;22.57;;;8.67;;
5452;SDS011;2749;53.576;9.822;2022-12-24T13:58:17;21.27;;;8.93;;
5452;SDS011;2749;53.576;9.822;2022-12-24T14:01:45;20.73;;;7.27;;
5452;SDS011;2749;53.576;9.822;2022-12-24T14:03:44;29.40;;;9.50;;
5452;SDS011;2749;53.576;9.822;2022-12-24T14:06:19;19.93;;;7.07;;
5452;SDS011;2749;53.576;9.822;2022-12-24T14:08:47;20.30;;;7.30;;
5452;SDS011;2749;53.576;9.822;2022-12-24T14:11:16;19.70;;;7.47;;
5452;SDS011;2749;53.576;9.822;2022-12-24T14:16:24;21.10;;;6.97;;
5452;SDS011;2749;53.576;9.822;2022-12-24T14:18:58;22.97;;;7.67;;
5452;SDS011;2749;53.576;9.822;2022-12-24T14:21:32;17.40;;;7.60;;
5452;SDS011;2749;53.576;9.822;2022-12-24T14:24:00;23.77;;;8.63;;
5452;SDS011;2749;53.576;9.822;2022-12-24T14:26:29;18.07;;;6.53;;
5452;SDS011;2749;53.576;9.822;2022-12-24T14:28:56;26.03;;;8.00;;
5452;SDS011;2749;53.576;9.822;2022-12-24T14:31:23;19.43;;;7.03;;
5452;SDS011;2749;53.576;9.822;2022-12-24T14:33:49;19.13;;;8.50;;
5452;SDS011;2749;53.576;9.822;2022-12-24T14:36:17;19.67;;;7.00;;
5452;SDS011;2749;53.576;9.822;2022-12-24T14:38:44;17.63;;;6.33;;
5452;SDS011;2749;53.576;9.822;2022-12-24T14:41:18;15.63;;;8.17;;
5452;SDS011;2749;53.576;9.822;2022-12-24T14:43:52;19.20;;;7.30;;
5452;SDS011;2749;53.576;9.822;2022-12-24T14:46:39;26.57;;;7.70;;
5452;SDS011;2749;53.576;9.822;2022-12-24T14:49:16;16.13;;;7.47;;
5452;SDS011;2749;53.576;9.822;2022-12-24T14:54:24;18.80;;;7.23;;
5452;SDS011;2749;53.576;9.822;2022-12-24T14:59:49;16.87;;;6.63;;
5452;SDS011;2749;53.576;9.822;2022-12-24T15:02:28;26.53;;;7.33;;
5452;SDS011;2749;53.576;9.822;2022-12-24T15:05:04;16.37;;;7.33;;
5452;SDS011;2749;53.576;9.822;2022-12-24T15:07:31;23.20;;;10.33;;
5452;SDS011;2749;53.576;9.822;2022-12-24T15:09:58;25.73;;;9.00;;
5452;SDS011;2749;53.576;9.822;2022-12-24T15:12:24;24.70;;;9.07;;
5452;SDS011;2749;53.576;9.822;2022-12-24T15:14:50;17.73;;;8.13;;
5452;SDS011;2749;53.576;9.822;2022-12-24T15:17:16;25.73;;;6.93;;
5452;SDS011;2749;53.576;9.822;2022-12-24T15:19:42;17.70;;;8.63;;
5452;SDS011;2749;53.576;9.822;2022-12-24T15:22:14;35.87;;;10.20;;
5452;SDS011;2749;53.576;9.822;2022-12-24T15:24:43;24.70;;;8.17;;
5452;SDS011;2749;53.576;9.822;2022-12-24T15:27:18;16.83;;;9.50;;
5452;SDS011;2749;53.576;9.822;2022-12-24T15:29:45;28.50;;;10.27;;
5452;SDS011;2749;53.576;9.822;2022-12-24T15:32:12;27.27;;;9.90;;
5452;SDS011;2749;53.576;9.822;2022-12-24T15:34:39;11.70;;;7.50;;
5452;SDS011;2749;53.576;9.822;2022-12-24T15:37:27;26.33;;;9.07;;
5452;SDS011;2749;53.576;9.822;2022-12-24T15:42:20;24.40;;;9.40;;
5452;SDS011;2749;53.576;9.822;2022-12-24T15:44:58;17.27;;;10.83;;
5452;SDS011;2749;53.576;9.822;2022-12-24T15:47:32;23.97;;;8.60;;
5452;SDS011;2749;53.576;9.822;2022-12-24T15:50:02;21.17;;;10.37;;
5452;SDS011;2749;53.576;9.822;2022-12-24T15:52:29;19.53;;;10.20;;
5452;SDS011;2749;53.576;9.822;2022-12-24T15:54:55;22.50;;;9.53;;
5452;SDS011;2749;53.576;9.822;2022-12-24T15:57:25;20.13;;;10.13;;
5452;SDS011;2749;53.576;9.822;2022-12-24T15:59:57;23.40;;;10.13;;
5452;SDS011;2749;53.576;9.822;2022-12-24T16:04:49;19.63;;;10.80;;
5452;SDS011;2749;53.576;9.822;2022-12-24T16:07:25;30.47;;;11.87;;
5452;SDS011;2749;53.576;9.822;2022-12-24T16:10:23;16.33;;;9.50;;
5452;SDS011;2749;53.576;9.822;2022-12-24T16:12:49;23.50;;;11.80;;